Time;durP1;ratioP1;P1;durP2;ratioP2;P2;SDS_P1;SDS_P2;PMS_P1;PMS_P2;Temp;Humidity;BMP_temperature;BMP_pressure;BME280_temperature;BME280_humidity;BME280_pressure;Samples;Min_cycle;Max_cycle;Signal;HPM_P1;HPM_P2
2021/10/20 00:01:42;;;;;;;66.00;35.03;;;;;;;7.15;84.03;98513.15;1690514;83;21475;-82
2021/10/20 00:04:08;;;;;;;52.27;28.92;;;;;;;7.14;84.63;98512.87;1690867;85;20979;-82
2021/10/20 00:06:36;;;;;;;28.65;14.63;;;;;;;7.17;84.39;98507.80;1690922;83;20888;-86
2021/10/20 00:09:02;;;;;;;59.77;33.55;;;;;;;7.22;85.27;98508.42;1691568;84;20929;-81
2021/10/20 00:11:28;;;;;;;41.42;23.50;;;;;;;7.27;84.71;98501.23;1690617;83;21840;-82
2021/10/20 00:13:54;;;;;;;41.18;23.85;;;;;;;7.32;84.64;98493.73;1690858;84;20880;-86
2021/10/20 00:16:21;;;;;;;36.05;20.95;;;;;;;7.27;84.50;98497.19;1690688;83;20924;-82
2021/10/20 00:18:48;;;;;;;62.23;31.93;;;;;;;7.27;85.75;98498.54;1690918;84;20995;-81
2021/10/20 00:21:19;;;;;;;62.48;31.52;;;;;;;7.28;85.07;98497.47;1694450;84;20984;-82
2021/10/20 00:23:46;;;;;;;67.55;35.92;;;;;;;7.27;84.92;98494.50;1671565;85;21831;-86
2021/10/20 00:26:12;;;;;;;55.88;28.90;;;;;;;7.28;84.68;98494.78;1690516;83;20973;-82
2021/10/20 00:28:38;;;;;;;50.03;28.73;;;;;;;7.29;84.58;98491.02;1690856;85;21464;-82
2021/10/20 00:31:04;;;;;;;50.85;28.75;;;;;;;7.30;84.36;98483.20;1690683;83;20900;-86
2021/10/20 00:33:32;;;;;;;56.05;26.20;;;;;;;7.29;84.28;98477.53;1690968;85;20908;-82
2021/10/20 00:35:58;;;;;;;75.47;32.53;;;;;;;7.26;84.05;98480.73;1684569;84;21815;-81
2021/10/20 00:38:24;;;;;;;69.32;36.50;;;;;;;7.26;84.08;98477.20;1681484;84;21106;-82
2021/10/20 00:40:51;;;;;;;61.18;32.40;;;;;;;7.26;83.97;98462.37;1681455;84;21527;-86
2021/10/20 00:43:21;;;;;;;47.90;27.42;;;;;;;7.19;84.97;98460.41;1681807;84;21047;-82
2021/10/20 00:45:49;;;;;;;57.27;29.42;;;;;;;7.14;85.23;98447.66;1681618;84;21008;-82
2021/10/20 00:48:15;;;;;;;47.33;23.47;;;;;;;7.08;87.10;98441.89;1680802;85;21086;-86
2021/10/20 00:50:41;;;;;;;26.35;13.80;;;;;;;7.06;87.69;98438.64;1681496;84;20961;-82
2021/10/20 00:53:09;;;;;;;33.38;27.58;;;;;;;7.00;87.94;98428.30;1681578;84;21393;-81
2021/10/20 00:55:46;;;;;;;;;;;;;;;;;;;;;
2021/10/20 00:58:04;;;;;;;24.53;12.27;;;;;;;7.10;86.87;98447.88;1681566;84;21511;-82
2021/10/20 01:00:32;;;;;;;32.83;15.10;;;;;;;7.14;86.86;98443.61;1681647;85;21164;-82
2021/10/20 01:03:08;;;;;;;;;;;;;;;;;;;;;
2021/10/20 01:05:26;;;;;;;18.37;9.58;;;;;;;7.26;86.01;98448.89;1643113;85;21051;-85
2021/10/20 01:07:54;;;;;;;34.92;17.15;;;;;;;7.29;85.84;98441.14;1681528;84;21386;-82
2021/10/20 01:10:20;;;;;;;29.90;17.70;;;;;;;7.28;86.77;98427.39;1681537;85;20869;-85
2021/10/20 01:12:49;;;;;;;20.85;12.80;;;;;;;7.33;86.39;98422.58;1681627;84;21197;-84
2021/10/20 01:15:28;;;;;;;;;;;;;;;;;;;;;
2021/10/20 01:17:51;;;;;;;37.15;20.52;;;;;;;7.37;86.17;98416.17;1681127;84;21036;-84
2021/10/20 01:20:19;;;;;;;32.25;19.32;;;;;;;7.41;86.09;98421.34;1681686;85;21098;-82
2021/10/20 01:22:47;;;;;;;38.55;22.07;;;;;;;7.38;85.97;98412.41;1681517;84;21047;-83
2021/10/20 01:25:13;;;;;;;34.78;21.37;;;;;;;7.41;85.91;98407.33;1681655;84;21155;-85
2021/10/20 01:27:41;;;;;;;29.70;16.30;;;;;;;7.43;86.08;98417.32;1681120;84;20989;-84
2021/10/20 01:30:11;;;;;;;42.43;22.77;;;;;;;7.42;86.63;98398.70;1681869;85;21405;-82
2021/10/20 01:32:39;;;;;;;37.50;22.55;;;;;;;7.49;86.22;98393.94;1681409;84;21433;-82
2021/10/20 01:35:07;;;;;;;33.42;20.85;;;;;;;7.49;86.32;98390.71;1682878;83;21475;-86
2021/10/20 01:37:36;;;;;;;38.38;23.10;;;;;;;7.45;86.67;98378.81;1690692;83;21067;-82
2021/10/20 01:40:08;;;;;;;35.85;23.62;;;;;;;7.44;86.57;98385.27;1690751;85;21361;-82
2021/10/20 01:42:36;;;;;;;39.05;25.60;;;;;;;7.43;86.01;98386.31;1690528;83;20944;-82
2021/10/20 01:45:18;;;;;;;;;;;;;;;;;;;;;
2021/10/20 01:47:36;;;;;;;26.48;16.70;;;;;;;7.38;86.11;98388.96;1668828;84;21102;-85
2021/10/20 01:50:06;;;;;;;29.50;17.52;;;;;;;7.37;87.06;98381.12;1691027;84;21318;-85
2021/10/20 01:52:32;;;;;;;32.93;20.55;;;;;;;7.40;86.29;98390.87;1689312;83;20941;-82
2021/10/20 01:55:02;;;;;;;28.67;17.27;;;;;;;7.37;86.98;98375.20;1690727;85;20952;-82
2021/10/20 01:57:28;;;;;;;29.00;17.98;;;;;;;7.35;86.76;98382.73;1690810;83;21490;-82
2021/10/20 01:59:58;;;;;;;26.40;14.30;;;;;;;7.37;86.21;98379.78;1690559;83;21075;-84
2021/10/20 02:02:32;;;;;;;17.55;11.28;;;;;;;7.37;86.84;98373.04;1671213;85;21130;-85
2021/10/20 02:04:55;;;;;;;27.07;14.68;;;;;;;7.37;86.43;98375.73;1690113;83;21123;-83
2021/10/20 02:07:31;;;;;;;;;;;;;;;;;;;;;
2021/10/20 02:09:52;;;;;;;32.93;18.27;;;;;;;7.41;86.79;98395.73;1689226;83;21032;-85
2021/10/20 02:12:23;;;;;;;27.62;17.20;;;;;;;7.43;86.35;98370.13;1686556;84;20987;-82
2021/10/20 02:14:59;;;;;;;30.27;14.68;;;;;;;7.44;86.45;98371.80;1690577;83;21793;-86
2021/10/20 02:17:21;;;;;;;19.12;11.88;;;;;;;7.43;87.56;98365.27;1689316;85;21447;-85
2021/10/20 02:20:00;;;;;;;;;;;;;;;;;;;;;
2021/10/20 02:22:32;;;;;;;;;;;;;;;;;;;;;
2021/10/20 02:24:56;;;;;;;14.18;8.10;;;;;;;7.66;87.58;98355.59;1648974;84;21035;-85
2021/10/20 02:27:34;;;;;;;;;;;;;;;;;;;;;
2021/10/20 02:29:56;;;;;;;10.35;6.33;;;;;;;7.68;87.15;98347.23;1688957;83;21177;-83
2021/10/20 02:32:31;;;;;;;12.58;6.40;;;;;;;7.73;86.67;98342.72;1690396;84;20929;-85
2021/10/20 02:35:06;;;;;;;;;;;;;;;;;;;;;
2021/10/20 02:37:25;;;;;;;12.40;6.37;;;;;;;7.98;86.52;98339.48;1688643;83;21095;-82
2021/10/20 02:39:52;;;;;;;12.70;5.25;;;;;;;8.14;85.70;98348.00;1690593;83;21738;-82
2021/10/20 02:42:22;;;;;;;8.75;4.00;;;;;;;8.29;85.36;98343.28;1691012;84;21032;-85
2021/10/20 02:44:49;;;;;;;10.70;5.35;;;;;;;8.67;84.61;98348.20;1690686;83;21003;-82
2021/10/20 02:47:18;;;;;;;8.85;5.37;;;;;;;8.93;84.06;98339.72;1691053;84;21468;-85
2021/10/20 02:49:55;;;;;;;;;;;;;;;;;;;;;
2021/10/20 02:52:14;;;;;;;8.95;5.17;;;;;;;8.78;82.44;98332.33;1687654;84;21099;-82
2021/10/20 02:54:50;;;;;;;;;;;;;;;;;;;;;
2021/10/20 02:57:14;;;;;;;9.35;5.42;;;;;;;8.89;83.29;98319.72;1669618;83;20995;-83
2021/10/20 02:59:53;;;;;;;;;;;;;;;;;;;;;
2021/10/20 03:02:23;;;;;;;;;;;;;;;;;;;;;
2021/10/20 03:04:53;;;;;;;;;;;;;;;;;;;;;
2021/10/20 03:07:11;;;;;;;7.10;4.50;;;;;;;10.69;79.36;98312.05;1688926;83;21059;-85
2021/10/20 03:09:44;;;;;;;2.22;1.92;;;;;;;11.09;77.81;98306.25;1671516;84;20992;-85
2021/10/20 03:12:20;;;;;;;;;;;;;;;;;;;;;
2021/10/20 03:14:52;;;;;;;;;;;;;;;;;;;;;
2021/10/20 03:17:14;;;;;;;4.47;2.80;;;;;;;12.04;74.32;98291.14;1687573;85;21123;-82
2021/10/20 03:19:49;;;;;;;6.92;4.03;;;;;;;12.23;74.07;98306.24;1690727;83;21290;-85
2021/10/20 03:22:16;;;;;;;6.45;3.65;;;;;;;12.36;73.11;98293.91;1612247;89;21620;-83
2021/10/20 03:24:45;;;;;;;5.72;3.77;;;;;;;12.50;72.87;98288.09;1687551;83;20981;-85
2021/10/20 03:27:21;;;;;;;;;;;;;;;;;;;;;
2021/10/20 03:29:49;;;;;;;;;;;;;;;;;;;;;
2021/10/20 03:32:11;;;;;;;7.92;3.65;;;;;;;12.92;71.39;98279.80;1687218;84;20980;-82
2021/10/20 03:34:52;;;;;;;5.03;3.40;;;;;;;12.93;70.98;98280.86;1690741;83;21040;-82
2021/10/20 03:37:24;;;;;;;;;;;;;;;;;;;;;
2021/10/20 03:39:54;;;;;;;;;;;;;;;;;;;;;
2021/10/20 03:42:22;;;;;;;6.78;3.47;;;;;;;13.12;69.20;98280.11;1677181;84;21212;-85
2021/10/20 03:44:47;;;;;;;5.72;3.90;;;;;;;13.19;69.20;98286.86;1681043;84;20929;-82
2021/10/20 03:47:24;;;;;;;;;;;;;;;;;;;;;
2021/10/20 03:49:54;;;;;;;;;;;;;;;;;;;;;
2021/10/20 03:52:18;;;;;;;7.45;3.35;;;;;;;13.25;69.36;98266.66;1597908;89;21059;-82
2021/10/20 03:54:45;;;;;;;9.20;4.17;;;;;;;13.29;68.83;98266.88;1597434;88;21106;-82
2021/10/20 03:57:23;;;;;;;;;;;;;;;;;;;;;
2021/10/20 03:59:44;;;;;;;6.95;4.20;;;;;;;13.41;67.40;98268.61;1681785;85;20977;-82
2021/10/20 04:02:23;;;;;;;;;;;;;;;;;;;;;
2021/10/20 04:04:54;;;;;;;;;;;;;;;;;;;;;
2021/10/20 04:07:30;;;;;;;;;;;;;;;;;;;;;
2021/10/20 04:10:00;;;;;;;;;;;;;;;;;;;;;
2021/10/20 04:12:24;;;;;;;5.22;3.70;;;;;;;13.45;67.19;98251.97;1640064;84;21008;-85
2021/10/20 04:14:53;;;;;;;7.50;3.72;;;;;;;13.46;66.74;98259.59;1675819;85;20945;-82
2021/10/20 04:17:27;;;;;;;5.05;3.15;;;;;;;13.35;67.37;98252.11;1686672;85;20973;-85
2021/10/20 04:20:03;;;;;;;;;;;;;;;;;;;;;
2021/10/20 04:22:23;;;;;;;7.70;4.53;;;;;;;13.27;67.18;98241.88;1678664;84;20949;-85
2021/10/20 04:25:04;;;;;;;;;;;;;;;;;;;;;
2021/10/20 04:27:30;;;;;;;;;;;;;;;;;;;;;
2021/10/20 04:29:48;;;;;;;7.53;3.27;;;;;;;13.14;67.53;98247.42;1630576;87;21006;-82
2021/10/20 04:32:18;;;;;;;6.45;3.80;;;;;;;13.11;67.48;98253.45;1612115;86;21101;-85
2021/10/20 04:34:56;;;;;;;;;;;;;;;;;;;;;
2021/10/20 04:37:23;;;;;;;8.10;4.00;;;;;;;13.09;68.01;98255.66;1625554;86;21372;-85
2021/10/20 04:39:56;;;;;;;4.92;3.60;;;;;;;13.10;68.08;98272.25;1673084;84;20929;-85
2021/10/20 04:42:15;;;;;;;6.95;4.35;;;;;;;13.10;68.11;98276.88;1680191;85;20968;-85
2021/10/20 04:44:47;;;;;;;8.53;4.37;;;;;;;12.98;68.90;98290.86;1686545;84;20973;-85
2021/10/20 04:47:13;;;;;;;5.30;3.35;;;;;;;12.98;68.90;98290.86;1686425;84;21398;-84
2021/10/20 04:49:42;;;;;;;8.13;3.47;;;;;;;12.94;68.88;98279.77;1686558;84;20972;-81
2021/10/20 04:52:15;;;;;;;;;;;;;;;12.95;68.39;98277.84;1688737;85;21040;-85
2021/10/20 04:54:42;;;;;;;7.22;3.62;;;;;;;12.95;69.15;98279.20;1685561;84;20142;-85
2021/10/20 04:57:11;;;;;;;6.83;4.67;;;;;;;12.91;68.98;98282.26;1685618;85;21370;-82
2021/10/20 04:59:36;;;;;;;5.57;4.07;;;;;;;12.80;69.09;98286.97;1686184;84;21035;-82
2021/10/20 05:02:06;;;;;;;6.42;4.40;;;;;;;12.71;69.16;98279.17;1655145;85;21095;-85
2021/10/20 05:04:36;;;;;;;8.78;3.95;;;;;;;12.72;69.22;98274.00;1688136;84;20945;-82
2021/10/20 05:07:15;;;;;;;;;;;;;;;;;;;;;
2021/10/20 05:09:44;;;;;;;9.88;5.12;;;;;;;12.71;69.67;98277.27;1683981;84;20961;-85
2021/10/20 05:12:09;;;;;;;7.72;4.40;;;;;;;12.73;69.55;98263.93;1684272;85;21440;-83
2021/10/20 05:14:42;;;;;;;9.65;4.72;;;;;;;12.77;69.72;98260.91;1686586;84;21401;-85
2021/10/20 05:17:06;;;;;;;6.62;3.92;;;;;;;12.79;69.55;98273.12;1686326;85;21000;-82
2021/10/20 05:19:31;;;;;;;6.15;4.50;;;;;;;12.77;69.07;98259.00;1686042;84;21350;-83
2021/10/20 05:22:06;;;;;;;10.15;5.67;;;;;;;12.76;69.82;98265.55;1682656;85;21444;-83
2021/10/20 05:24:27;;;;;;;11.12;6.55;;;;;;;12.73;69.98;98269.37;1684279;84;21153;-83
2021/10/20 05:26:54;;;;;;;12.40;6.37;;;;;;;12.67;69.77;98262.64;1686031;85;21365;-85
2021/10/20 05:29:21;;;;;;;16.02;9.28;;;;;;;12.68;69.56;98254.74;1686350;84;20972;-85
2021/10/20 05:31:47;;;;;;;8.68;5.65;;;;;;;12.66;69.54;98251.51;1686245;84;21400;-82
2021/10/20 05:34:16;;;;;;;12.15;6.62;;;;;;;12.67;69.78;98252.31;1686734;84;20865;-82
2021/10/20 05:36:41;;;;;;;10.53;5.60;;;;;;;12.70;69.92;98253.90;1686361;83;21059;-82
2021/10/20 05:39:07;;;;;;;13.43;5.28;;;;;;;12.70;70.18;98243.58;1688255;85;21015;-85
2021/10/20 05:41:35;;;;;;;8.03;4.17;;;;;;;12.77;70.27;98252.76;1688485;83;21028;-82
2021/10/20 05:44:08;;;;;;;7.53;4.60;;;;;;;12.85;70.00;98261.64;1688389;85;20929;-85
2021/10/20 05:46:31;;;;;;;7.67;5.03;;;;;;;12.95;69.54;98259.62;1679309;85;20968;-83
2021/10/20 05:48:59;;;;;;;7.80;4.42;;;;;;;13.03;69.31;98249.20;1688549;84;21010;-84
2021/10/20 05:51:29;;;;;;;14.63;6.28;;;;;;;13.20;68.72;98250.38;1678462;84;21004;-84
2021/10/20 05:54:07;;;;;;;;;;;;;;;;;;;;;
2021/10/20 05:56:29;;;;;;;5.33;3.67;;;;;;;13.42;68.88;98229.98;1682823;83;20960;-84
2021/10/20 05:59:10;;;;;;;;;;;;;;;;;;;;;
2021/10/20 06:01:27;;;;;;;11.03;4.75;;;;;;;13.61;68.05;98209.02;1687621;83;20925;-82
2021/10/20 06:04:04;;;;;;;;;;;;;;;;;;;;;
2021/10/20 06:06:26;;;;;;;3.45;2.75;;;;;;;13.76;67.84;98205.27;1687978;83;20989;-84
2021/10/20 06:08:54;;;;;;;9.70;5.08;;;;;;;13.90;67.06;98197.94;1685295;85;20948;-82
2021/10/20 06:11:27;;;;;;;9.35;4.03;;;;;;;13.83;67.74;98211.13;1688256;83;21967;-83
2021/10/20 06:14:00;;;;;;;;;;;;;;;;;;;;;
2021/10/20 06:16:22;;;;;;;5.97;2.90;;;;;;;13.91;67.68;98204.20;1686186;83;20996;-85
2021/10/20 06:18:57;;;;;;;10.32;4.62;;;;;;;14.06;66.86;98206.69;1688557;85;20983;-82
2021/10/20 06:21:33;;;;;;;;;;;;;;;;;;;;;
2021/10/20 06:23:51;;;;;;;8.20;4.60;;;;;;;14.14;67.19;98207.92;1685715;85;21408;-84
2021/10/20 06:26:26;;;;;;;;;;;;;;;;;;;;;
2021/10/20 06:28:56;;;;;;;;;;;;;;;;;;;;;
2021/10/20 06:31:28;;;;;;;;;;;;;;;;;;;;;
2021/10/20 06:34:01;;;;;;;;;;;;;;;;;;;;;
2021/10/20 06:36:33;;;;;;;6.45;4.33;;;;;;;14.61;67.48;98215.84;1597258;89;21459;-82
2021/10/20 06:39:20;;;;;;;6.15;3.55;;;;;;;14.74;66.46;98206.61;1592571;89;20996;-82
2021/10/20 06:41:31;;;;;;;6.90;3.95;;;;;;;14.81;66.83;98207.02;1586909;90;21083;-84
2021/10/20 06:44:15;;;;;;;;;;;;;;;;;;;;;
2021/10/20 06:46:39;;;;;;;7.87;3.55;;;;;;;14.97;67.16;98212.43;1559639;90;20972;-84
2021/10/20 06:49:20;;;;;;;;;;;;;;;;;;;;;
2021/10/20 06:51:50;;;;;;;;;;;;;;;;;;;;;
2021/10/20 06:54:18;;;;;;;;;;;;;;;;;;;;;
2021/10/20 06:56:48;;;;;;;;;;;;;;;;;;;;;
2021/10/20 06:59:15;;;;;;;9.43;4.03;;;;;;;15.09;66.25;98225.55;1726592;82;20985;-85
2021/10/20 07:01:52;;;;;;;;;;;;;;;;;;;;;
2021/10/20 07:04:15;;;;;;;3.90;3.42;;;;;;;15.29;66.01;98207.38;1716617;82;20945;-84
2021/10/20 07:06:54;;;;;;;;;;;;;;;;;;;;;
2021/10/20 07:09:16;;;;;;;6.33;4.58;;;;;;;15.41;66.06;98215.06;1683137;83;21372;-82
2021/10/20 07:11:58;;;;;;;;;;;;;;;;;;;;;
2021/10/20 07:14:29;;;;;;;;;;;;;;;;;;;;;
2021/10/20 07:17:00;;;;;;;3.95;3.45;;;;;;;15.53;65.16;98202.48;1634933;86;21095;-85
2021/10/20 07:19:35;;;;;;;;;;;;;;;;;;;;;
2021/10/20 07:22:02;;;;;;;7.75;4.45;;;;;;;15.55;65.16;98198.63;1532310;92;21001;-82
2021/10/20 07:24:41;;;;;;;;;;;;;;;;;;;;;
2021/10/20 07:27:07;;;;;;;8.60;4.50;;;;;;;15.57;65.47;98204.06;1637333;86;21062;-84
2021/10/20 07:29:44;;;;;;;;;;;;;;;;;;;;;
2021/10/20 07:32:14;;;;;;;;;;;;;;;;;;;;;
2021/10/20 07:34:45;;;;;;;10.50;4.40;;;;;;;15.70;65.57;98222.91;1551899;92;21010;-83
2021/10/20 07:37:19;;;;;;;;;;;;;;;;;;;;;
2021/10/20 07:39:40;;;;;;;6.12;3.45;;;;;;;15.80;65.15;98217.20;1499749;95;21038;-82
2021/10/20 07:42:20;;;;;;;;;;;;;;;;;;;;;
2021/10/20 07:44:48;;;;;;;6.92;3.15;;;;;;;15.85;64.94;98206.17;1496815;95;21098;-84
2021/10/20 07:47:26;;;;;;;;;;;;;;;;;;;;;
2021/10/20 07:49:59;;;;;;;;;;;;;;;;;;;;;
2021/10/20 07:52:25;;;;;;;7.37;4.45;;;;;;;16.03;64.57;98200.27;1541463;92;20969;-82
2021/10/20 07:55:05;;;;;;;;;;;;;;;;;;;;;
2021/10/20 07:57:29;;;;;;;7.50;4.53;;;;;;;15.97;65.10;98195.48;1550246;91;21007;-84
2021/10/20 08:00:23;;;;;;;;;;;;;;;;;;;;;
2021/10/20 08:02:47;;;;;;;;;;;;;;;;;;;;;
2021/10/20 08:05:17;;;;;;;;;;;;;;;;;;;;;
2021/10/20 08:07:58;;;;;;;;;;;;;;;;;;;;;
2021/10/20 08:10:30;;;;;;;;;;;;;;;;;;;;;
2021/10/20 08:13:00;;;;;;;;;;;;;;;;;;;;;
2021/10/20 08:15:38;;;;;;;;;;;;;;;;;;;;;
2021/10/20 08:18:03;;;;;;;;;;;;;;;;;;;;;
2021/10/20 08:20:34;;;;;;;9.93;5.42;;;;;;;16.91;63.02;98184.03;1407417;100;21059;-82
2021/10/20 08:23:11;;;;;;;;;;;;;;;;;;;;;
2021/10/20 08:25:38;;;;;;;;;;;;;;;;;;;;;
2021/10/20 08:28:07;;;;;;;6.95;3.90;;;;;;;17.20;61.54;98172.53;1398530;100;21112;-84
2021/10/20 08:30:30;;;;;;;13.15;4.83;;;;;;;17.57;60.92;98172.49;1363856;103;21029;-82
2021/10/20 08:33:05;;;;;;;7.85;4.85;;;;;;;17.66;60.31;98167.81;1347681;103;21116;-83
2021/10/20 08:35:37;;;;;;;6.37;4.00;;;;;;;17.56;61.10;98165.97;1380438;103;21134;-84
2021/10/20 08:38:09;;;;;;;9.15;4.67;;;;;;;17.59;60.68;98166.12;1372825;103;21078;-83
2021/10/20 08:40:47;;;;;;;;;;;;;;;;;;;;;
2021/10/20 08:43:30;;;;;;;;;;;;;;;;;;;;;
2021/10/20 08:45:56;;;;;;;;;;;;;;;;;;;;;
2021/10/20 08:48:24;;;;;;;;;;;;;;;;;;;;;
2021/10/20 08:50:50;;;;;;;5.83;3.40;;;;;;;17.71;60.73;98155.94;1454608;96;21444;-83
2021/10/20 08:53:30;;;;;;;;;;;;;;;;;;;;;
2021/10/20 08:56:03;;;;;;;;;;;;;;;;;;;;;
2021/10/20 08:58:35;;;;;;;;;;;;;;;;;;;;;
2021/10/20 09:01:07;;;;;;;;;;;;;;;;;;;;;
2021/10/20 09:03:29;;;;;;;7.50;4.78;;;;;;;17.90;59.96;98129.55;1653717;86;21766;-84
2021/10/20 09:06:05;;;;;;;13.40;8.50;;;;;;;17.93;59.79;98131.63;1602795;89;21062;-82
2021/10/20 09:08:36;;;;;;;18.52;10.75;;;;;;;18.01;60.14;98130.81;1576730;90;21077;-84
2021/10/20 09:11:01;;;;;;;16.17;13.08;;;;;;;18.07;60.35;98129.52;1585119;89;21019;-83
2021/10/20 09:13:41;;;;;;;7.08;5.15;;;;;;;18.17;59.51;98126.43;1602137;89;21039;-83
2021/10/20 09:16:14;;;;;;;;;;;;;;;;;;;;;
2021/10/20 09:18:37;;;;;;;6.30;4.17;;;;;;;18.27;59.96;98119.22;1597526;89;21500;-82
2021/10/20 09:21:17;;;;;;;6.22;4.33;;;;;;;18.36;59.17;98124.67;1602783;88;21515;-84
2021/10/20 09:23:37;;;;;;;8.38;4.83;;;;;;;18.38;59.15;98119.69;1590183;89;21031;-82
2021/10/20 09:26:10;;;;;;;9.57;4.97;;;;;;;18.44;59.50;98117.55;1528597;93;21035;-82
2021/10/20 09:28:39;;;;;;;9.13;5.22;;;;;;;18.52;59.11;98106.55;1528847;93;21081;-84
2021/10/20 09:31:15;;;;;;;5.55;3.85;;;;;;;18.56;59.12;98103.39;1517174;93;21055;-82
2021/10/20 09:33:46;;;;;;;4.78;3.47;;;;;;;18.59;59.13;98106.03;1512057;93;21074;-83
2021/10/20 09:36:17;;;;;;;6.53;4.17;;;;;;;18.67;59.05;98100.30;1594471;86;20943;-82
2021/10/20 09:39:01;;;;;;;;;;;;;;;;;;;;;
2021/10/20 09:41:23;;;;;;;7.17;4.40;;;;;;;18.74;58.77;98095.11;1685632;84;20927;-82
2021/10/20 09:44:05;;;;;;;;;;;;;;;;;;;;;
2021/10/20 09:46:33;;;;;;;5.67;3.17;;;;;;;18.86;58.08;98089.13;1706379;83;21012;-84
2021/10/20 09:49:19;;;;;;;6.00;3.58;;;;;;;18.99;58.17;98091.98;1703322;83;20982;-84
2021/10/20 09:51:56;;;;;;;4.37;3.33;;;;;;;19.10;58.08;98091.81;1708838;84;21426;-83
2021/10/20 09:54:27;;;;;;;5.58;3.65;;;;;;;19.27;57.78;98091.69;1706824;83;21047;-84
2021/10/20 09:56:57;;;;;;;4.95;3.50;;;;;;;19.38;57.13;98081.09;1707640;82;21019;-83
2021/10/20 09:59:28;;;;;;;5.17;3.27;;;;;;;19.50;56.63;98072.13;1741143;81;21489;-82
2021/10/20 10:01:58;;;;;;;4.80;3.12;;;;;;;19.54;56.68;98082.66;1744660;82;21020;-82
2021/10/20 10:04:25;;;;;;;4.12;3.33;;;;;;;19.60;56.57;98079.98;1741786;81;20992;-84
2021/10/20 10:06:55;;;;;;;8.20;3.42;;;;;;;19.63;56.12;98079.30;1745017;82;20942;-84
2021/10/20 10:09:23;;;;;;;6.90;2.58;;;;;;;19.62;55.48;98078.48;1743690;81;20894;-82
2021/10/20 10:11:52;;;;;;;9.90;4.45;;;;;;;19.61;55.16;98070.02;1744930;81;21144;-82
2021/10/20 10:14:22;;;;;;;6.97;3.47;;;;;;;19.64;54.88;98073.45;1745251;81;21405;-84
2021/10/20 10:16:58;;;;;;;4.95;3.27;;;;;;;19.66;54.86;98065.70;1744804;82;21430;-84
2021/10/20 10:19:17;;;;;;;4.87;3.65;;;;;;;19.74;54.65;98061.27;1743193;81;21389;-83
2021/10/20 10:21:47;;;;;;;6.07;3.40;;;;;;;19.76;54.77;98056.22;1749012;82;20902;-84
2021/10/20 10:24:17;;;;;;;5.42;3.50;;;;;;;19.93;54.47;98060.17;1745423;81;21146;-84
2021/10/20 10:27:09;;;;;;;7.97;3.45;;;;;;;20.00;54.23;98057.67;1744905;82;20945;-84
2021/10/20 10:29:49;;;;;;;6.53;3.37;;;;;;;20.10;53.35;98046.00;1745112;81;21218;-84
2021/10/20 10:32:18;;;;;;;7.53;3.75;;;;;;;20.25;52.98;98051.64;1745026;82;20966;-82
2021/10/20 10:34:47;;;;;;;5.90;3.33;;;;;;;20.38;52.42;98037.30;1724462;82;20898;-82
2021/10/20 10:37:27;;;;;;;7.20;3.47;;;;;;;20.59;51.55;98040.53;1744461;82;20945;-84
2021/10/20 10:40:03;;;;;;;;;;;;;;;;;;;;;
2021/10/20 10:42:33;;;;;;;12.70;4.45;;;;;;;20.82;49.64;98026.52;1742692;80;21005;-84
2021/10/20 10:45:21;;;;;;;7.58;4.37;;;;;;;20.87;47.98;98024.92;1736119;81;21354;-82
2021/10/20 10:48:03;;;;;;;4.92;3.25;;;;;;;20.84;48.44;98021.47;1743795;82;20941;-82
2021/10/20 10:50:49;;;;;;;7.47;4.03;;;;;;;20.76;48.14;98021.81;1745213;81;21118;-84
2021/10/20 10:53:34;;;;;;;7.35;3.60;;;;;;;20.69;48.31;98012.56;1745146;82;21013;-84
2021/10/20 10:56:04;;;;;;;5.65;3.52;;;;;;;20.62;48.97;98012.34;1744971;81;20946;-84
2021/10/20 10:58:33;;;;;;;5.87;3.42;;;;;;;20.54;48.47;98012.69;1741282;81;21399;-84
2021/10/20 11:00:59;;;;;;;7.33;3.15;;;;;;;20.55;48.13;98015.66;1738939;81;20958;-84
2021/10/20 11:03:27;;;;;;;6.10;3.60;;;;;;;20.58;47.69;98005.91;1740559;82;20953;-82
2021/10/20 11:05:58;;;;;;;4.20;3.33;;;;;;;20.55;47.95;97996.39;1740077;81;21501;-84
2021/10/20 11:08:25;;;;;;;4.83;3.35;;;;;;;20.59;47.86;97988.23;1740549;82;20941;-83
2021/10/20 11:10:55;;;;;;;4.53;3.17;;;;;;;20.60;48.32;97982.98;1740151;81;21351;-84
2021/10/20 11:13:23;;;;;;;7.15;3.87;;;;;;;20.69;48.05;97977.58;1740390;82;21013;-82
2021/10/20 11:15:49;;;;;;;4.55;2.75;;;;;;;20.77;47.48;97968.95;1740154;81;21134;-84
2021/10/20 11:18:24;;;;;;;6.53;3.52;;;;;;;20.83;47.21;97960.66;1740027;82;21378;-84
2021/10/20 11:20:49;;;;;;;4.35;2.98;;;;;;;20.95;46.94;97961.22;1735677;81;20957;-83
2021/10/20 11:23:18;;;;;;;10.40;4.07;;;;;;;21.01;47.61;97953.72;1741066;82;20906;-83
2021/10/20 11:25:47;;;;;;;4.75;2.87;;;;;;;21.10;47.32;97941.98;1739961;81;20968;-84
2021/10/20 11:28:13;;;;;;;5.70;3.02;;;;;;;21.25;47.08;97941.80;1740272;82;21994;-84
2021/10/20 11:30:40;;;;;;;6.30;2.70;;;;;;;21.29;47.72;97932.31;1740057;81;20938;-82
2021/10/20 11:33:15;;;;;;;6.03;2.75;;;;;;;21.43;46.80;97927.16;1740333;82;20988;-84
2021/10/20 11:35:42;;;;;;;4.28;3.15;;;;;;;21.45;46.18;97916.61;1740172;81;21323;-83
2021/10/20 11:38:17;;;;;;;5.40;3.17;;;;;;;21.39;46.31;97918.02;1719817;82;21013;-84
2021/10/20 11:40:50;;;;;;;7.92;3.17;;;;;;;21.37;46.02;97912.06;1740082;81;20905;-84
2021/10/20 11:43:24;;;;;;;3.27;2.25;;;;;;;21.32;45.23;97910.34;1740310;81;21009;-82
2021/10/20 11:45:52;;;;;;;8.25;3.80;;;;;;;21.30;46.00;97915.41;1726898;82;20972;-83
2021/10/20 11:48:23;;;;;;;4.00;2.70;;;;;;;21.27;45.87;97905.66;1740363;82;20989;-82
2021/10/20 11:50:54;;;;;;;5.75;2.85;;;;;;;21.20;46.07;97902.70;1736044;81;20910;-84
2021/10/20 11:53:20;;;;;;;6.33;2.50;;;;;;;21.12;46.17;97902.50;1739884;82;21320;-84
2021/10/20 11:55:49;;;;;;;4.33;2.50;;;;;;;21.04;46.04;97903.45;1740097;81;20965;-82
2021/10/20 11:58:20;;;;;;;3.72;2.83;;;;;;;20.98;46.19;97895.21;1740670;81;21033;-85
2021/10/20 12:00:56;;;;;;;5.42;2.87;;;;;;;20.94;46.36;97890.77;1740077;81;21436;-82
2021/10/20 12:03:34;;;;;;;5.47;3.37;;;;;;;20.89;45.77;97887.67;1738847;82;21016;-83
2021/10/20 12:06:03;;;;;;;5.28;3.60;;;;;;;20.90;45.25;97878.84;1726873;81;20886;-84
2021/10/20 12:08:31;;;;;;;7.37;4.12;;;;;;;20.92;45.00;97876.53;1740026;82;20921;-82
2021/10/20 12:11:05;;;;;;;9.15;4.53;;;;;;;20.93;44.96;97873.42;1739995;81;21433;-82
2021/10/20 12:13:33;;;;;;;9.80;3.70;;;;;;;21.00;44.25;97871.45;1738676;81;21524;-82
2021/10/20 12:16:04;;;;;;;6.33;4.03;;;;;;;21.04;44.15;97875.91;1738689;81;21083;-84
2021/10/20 12:18:29;;;;;;;5.55;2.50;;;;;;;21.09;44.29;97866.58;1738412;81;21009;-82
2021/10/20 12:21:00;;;;;;;6.42;2.62;;;;;;;21.12;44.29;97856.25;1720003;82;21020;-82
2021/10/20 12:23:35;;;;;;;4.42;2.42;;;;;;;21.23;43.47;97856.53;1740404;82;21402;-81
2021/10/20 12:26:01;;;;;;;9.43;4.17;;;;;;;21.25;43.72;97849.50;1739845;81;20898;-84
2021/10/20 12:28:27;;;;;;;5.00;3.77;;;;;;;21.29;44.34;97844.93;1719690;82;20969;-82
2021/10/20 12:30:56;;;;;;;6.50;3.50;;;;;;;21.34;43.87;97839.14;1740122;81;21131;-84
2021/10/20 12:33:22;;;;;;;5.00;3.15;;;;;;;21.37;44.09;97837.65;1719711;82;21311;-84
2021/10/20 12:35:50;;;;;;;8.03;3.12;;;;;;;21.36;43.99;97836.85;1739982;81;20914;-82
2021/10/20 12:38:17;;;;;;;3.98;2.35;;;;;;;21.36;43.89;97841.53;1740283;82;21012;-82
2021/10/20 12:40:47;;;;;;;4.87;2.42;;;;;;;21.37;43.07;97821.91;1740060;81;20940;-84
2021/10/20 12:43:17;;;;;;;3.00;2.05;;;;;;;21.33;43.28;97814.12;1719533;82;20953;-84
2021/10/20 12:45:49;;;;;;;3.45;2.42;;;;;;;21.25;43.27;97810.92;1739766;81;20894;-84
2021/10/20 12:48:17;;;;;;;5.10;2.85;;;;;;;21.15;43.22;97811.45;1740285;81;20910;-82
2021/10/20 12:50:48;;;;;;;5.12;2.35;;;;;;;21.09;43.09;97805.98;1740275;81;20926;-82
2021/10/20 12:53:14;;;;;;;2.75;1.98;;;;;;;21.04;43.57;97797.41;1739586;82;20906;-84
2021/10/20 12:55:44;;;;;;;3.20;1.98;;;;;;;21.04;42.82;97794.66;1740210;81;21151;-84
2021/10/20 12:58:26;;;;;;;;;;;;;;;;;;;;;
2021/10/20 13:00:46;;;;;;;5.05;2.92;;;;;;;21.07;41.78;97796.69;1736848;81;21037;-84
2021/10/20 13:03:14;;;;;;;4.72;2.22;;;;;;;21.10;41.76;97789.67;1740484;81;20926;-84
2021/10/20 13:05:44;;;;;;;3.35;2.25;;;;;;;21.08;42.05;97781.77;1718964;82;20894;-84
2021/10/20 13:08:17;;;;;;;4.20;2.95;;;;;;;21.10;41.71;97778.07;1740315;82;21071;-82
2021/10/20 13:10:45;;;;;;;6.70;2.63;;;;;;;21.08;41.65;97785.09;1738419;81;20977;-84
2021/10/20 13:13:08;;;;;;;2.30;1.70;;;;;;;21.06;41.67;97784.66;1734636;82;20953;-82
2021/10/20 13:15:36;;;;;;;4.58;2.37;;;;;;;21.06;41.05;97779.15;1739935;81;20924;-84
2021/10/20 13:18:04;;;;;;;6.72;2.37;;;;;;;21.07;40.72;97771.10;1740011;81;21320;-84
2021/10/20 13:20:34;;;;;;;5.07;2.23;;;;;;;21.07;40.77;97771.91;1739987;81;20902;-84
2021/10/20 13:23:07;;;;;;;3.70;2.30;;;;;;;21.08;40.77;97767.99;1740378;81;20954;-82
2021/10/20 13:25:28;;;;;;;4.65;2.83;;;;;;;21.02;41.63;97768.05;1738353;81;20965;-82
2021/10/20 13:27:56;;;;;;;4.20;2.73;;;;;;;21.04;41.47;97774.58;1736202;82;21537;-82
2021/10/20 13:30:23;;;;;;;6.75;2.95;;;;;;;21.09;40.35;97767.41;1740251;82;21310;-85